Time;durP1;ratioP1;P1;durP2;ratioP2;P2;SDS_P1;SDS_P2;PMS_P1;PMS_P2;Temp;Humidity;BMP_temperature;BMP_pressure;BME280_temperature;BME280_humidity;BME280_pressure;Samples;Min_cycle;Max_cycle;Signal;HPM_P1;HPM_P2
2023/01/22 00:02:23;;;;;;;971.20;361.77;;;0.40;99.90;;;;;;5053495;28;20754;-84
2023/01/22 00:04:48;;;;;;;944.07;356.53;;;0.30;99.90;;;;;;5052981;28;20516;-84
2023/01/22 00:07:14;;;;;;;941.80;452.00;;;0.30;99.90;;;;;;5053154;28;20045;-84
2023/01/22 00:09:41;;;;;;;920.40;359.77;;;1.20;99.90;;;;;;5052938;28;20045;-84
2023/01/22 00:12:07;;;;;;;925.07;358.10;;;0.20;99.90;;;;;;5052774;28;20132;-84
2023/01/22 00:14:33;;;;;;;940.60;360.07;;;0.30;99.90;;;;;;5052868;28;20342;-83
2023/01/22 00:16:58;;;;;;;921.80;359.33;;;0.20;99.90;;;;;;5051272;28;20335;-84
2023/01/22 00:19:24;;;;;;;922.70;354.43;;;0.50;99.90;;;;;;5052303;28;20550;-83
2023/01/22 00:21:50;;;;;;;917.50;356.23;;;0.60;99.90;;;;;;5052951;28;20071;-84
2023/01/22 00:24:16;;;;;;;914.03;358.23;;;0.10;99.90;;;;;;5037407;28;20061;-84
2023/01/22 00:26:42;;;;;;;917.20;449.50;;;0.20;99.90;;;;;;5032413;28;20099;-84
2023/01/22 00:29:07;;;;;;;914.17;454.17;;;0.70;99.90;;;;;;5032552;28;20304;-84
2023/01/22 00:31:33;;;;;;;895.27;354.30;;;-0.10;99.90;;;;;;5032894;28;20591;-85
2023/01/22 00:33:59;;;;;;;909.87;460.80;;;-0.10;99.90;;;;;;5030680;28;20052;-83
2023/01/22 00:36:25;;;;;;;881.27;357.47;;;-0.40;99.90;;;;;;5013197;28;20042;-84
2023/01/22 00:38:51;;;;;;;890.40;452.83;;;1.20;99.90;;;;;;5015075;28;20041;-84
2023/01/22 00:41:18;;;;;;;863.97;354.70;;;-0.10;99.90;;;;;;5032198;28;20077;-84
2023/01/22 00:43:44;;;;;;;871.20;449.57;;;-0.20;99.90;;;;;;5032137;28;20350;-84
2023/01/22 00:46:13;;;;;;;861.27;446.77;;;-0.20;99.90;;;;;;5032802;28;20367;-85
2023/01/22 00:48:39;;;;;;;916.27;448.23;;;-0.20;99.90;;;;;;5031630;28;20261;-84
2023/01/22 00:51:09;;;;;;;891.67;348.37;;;-0.20;99.90;;;;;;5031864;28;20297;-84
2023/01/22 00:53:35;;;;;;;900.53;352.10;;;-0.10;99.90;;;;;;5032474;28;20246;-83
2023/01/22 00:56:01;;;;;;;868.90;350.07;;;-0.10;99.90;;;;;;5032995;28;20328;-83
2023/01/22 00:58:28;;;;;;;882.77;450.60;;;-0.10;99.90;;;;;;5032273;28;20821;-86
2023/01/22 01:00:54;;;;;;;872.20;359.93;;;1.00;99.90;;;;;;5032686;28;20300;-86
2023/01/22 01:03:26;;;;;;;872.00;449.17;;;-0.10;99.90;;;;;;5015444;28;20644;-86
2023/01/22 01:05:56;;;;;;;846.33;447.53;;;0.40;99.90;;;;;;5032668;28;20312;-85
2023/01/22 01:08:23;;;;;;;878.10;356.60;;;0.80;99.90;;;;;;5031604;28;20296;-85
2023/01/22 01:10:53;;;;;;;876.63;357.97;;;0.10;99.90;;;;;;5031141;28;20288;-84
2023/01/22 01:20:22;;;;;;;1097.13;376.23;;;-0.10;99.90;;;;;;5031511;28;20669;-84
2023/01/22 01:22:47;;;;;;;1087.50;467.10;;;-0.10;99.90;;;;;;5031363;28;20300;-84
2023/01/22 01:25:13;;;;;;;1053.40;463.93;;;0.00;99.90;;;;;;5031868;28;20433;-84
2023/01/22 01:27:39;;;;;;;1026.87;455.33;;;0.40;99.90;;;;;;5032050;28;20053;-83
2023/01/22 01:30:05;;;;;;;1017.47;456.90;;;-0.20;99.90;;;;;;5030898;28;20055;-84
2023/01/22 01:32:31;;;;;;;1017.03;456.77;;;-0.20;99.90;;;;;;5031625;28;20041;-85
2023/01/22 01:34:56;;;;;;;1029.43;458.67;;;-0.20;99.90;;;;;;5031460;28;20292;-84
2023/01/22 01:37:22;;;;;;;994.93;456.87;;;-0.20;99.90;;;;;;5031648;28;20563;-84
2023/01/22 01:39:51;;;;;;;971.50;361.43;;;-0.20;99.90;;;;;;5013873;28;20037;-84
2023/01/22 01:42:25;;;;;;;975.00;366.23;;;0.20;99.90;;;;;;5030882;28;20482;-83
2023/01/22 01:45:23;;;;;;;957.43;456.77;;;-0.20;99.90;;;;;;5031464;28;20304;-84
2023/01/22 01:47:55;;;;;;;887.20;445.07;;;-0.20;99.90;;;;;;5031657;28;20284;-84
2023/01/22 01:50:23;;;;;;;846.97;349.70;;;-0.20;99.90;;;;;;5023795;28;20291;-85
2023/01/22 01:52:49;;;;;;;865.67;445.10;;;-0.20;99.90;;;;;;5031115;28;20786;-84
2023/01/22 01:55:18;;;;;;;835.97;443.20;;;1.00;99.90;;;;;;5031454;28;20294;-83
2023/01/22 01:57:44;;;;;;;908.57;348.67;;;-0.20;99.90;;;;;;5031860;28;20061;-84
2023/01/22 02:00:12;;;;;;;910.83;447.33;;;-0.20;99.90;;;;;;5032867;28;20873;-85
2023/01/22 02:02:39;;;;;;;859.17;445.50;;;-0.10;99.90;;;;;;5017272;28;20300;-85
2023/01/22 02:05:07;;;;;;;933.27;446.83;;;0.60;99.90;;;;;;5034868;28;20357;-84
2023/01/22 02:07:32;;;;;;;883.83;349.77;;;-0.10;99.90;;;;;;5035103;28;20300;-84
2023/01/22 02:09:58;;;;;;;910.33;450.47;;;-0.10;99.90;;;;;;5035186;28;20936;-83
2023/01/22 02:12:24;;;;;;;893.10;444.23;;;-0.20;99.90;;;;;;5034415;28;20049;-83
2023/01/22 02:14:49;;;;;;;932.50;448.20;;;-0.10;99.90;;;;;;5035110;28;20378;-83
2023/01/22 02:17:20;;;;;;;910.77;351.17;;;0.00;99.90;;;;;;5034502;28;20112;-82
2023/01/22 02:19:46;;;;;;;924.50;445.40;;;0.50;99.90;;;;;;5034852;28;20048;-84
2023/01/22 02:22:18;;;;;;;916.87;349.73;;;1.70;99.90;;;;;;5034562;28;20300;-83
2023/01/22 02:24:44;;;;;;;923.10;445.03;;;0.10;99.90;;;;;;5034196;28;20579;-83
2023/01/22 02:27:10;;;;;;;936.53;443.87;;;0.20;99.90;;;;;;5016708;28;20288;-84
2023/01/22 02:29:36;;;;;;;903.07;443.97;;;0.10;99.90;;;;;;5034433;28;20075;-85
2023/01/22 02:32:02;;;;;;;874.60;445.67;;;0.10;99.90;;;;;;5034557;28;20292;-83
2023/01/22 02:34:28;;;;;;;905.13;444.07;;;0.10;99.90;;;;;;5016347;28;20306;-83
2023/01/22 02:36:54;;;;;;;889.43;348.97;;;0.40;99.90;;;;;;5016989;28;20474;-83
2023/01/22 02:39:20;;;;;;;863.23;347.37;;;0.30;99.90;;;;;;5034239;28;20132;-84
2023/01/22 02:41:46;;;;;;;849.73;347.70;;;0.40;99.90;;;;;;5034235;28;20375;-83
2023/01/22 02:44:11;;;;;;;882.73;442.53;;;0.40;99.90;;;;;;5034295;28;20045;-83
2023/01/22 02:46:37;;;;;;;881.30;349.17;;;1.40;99.90;;;;;;5033956;28;20045;-83
2023/01/22 02:49:03;;;;;;;863.00;347.33;;;0.30;99.90;;;;;;5034469;28;20261;-83
2023/01/22 02:51:29;;;;;;;865.47;349.23;;;0.40;99.90;;;;;;5033672;28;20399;-82
2023/01/22 02:53:54;;;;;;;843.00;347.40;;;1.30;99.90;;;;;;5034131;28;20042;-83
2023/01/22 02:56:20;;;;;;;841.10;346.73;;;0.40;99.90;;;;;;5034161;28;20048;-82
2023/01/22 02:58:46;;;;;;;861.30;351.00;;;0.50;99.90;;;;;;5016084;28;20386;-83
2023/01/22 03:01:19;;;;;;;868.87;444.47;;;1.30;99.90;;;;;;5034025;28;20307;-82
2023/01/22 03:03:57;;;;;;;847.83;442.07;;;1.50;99.90;;;;;;5033723;28;20041;-82
2023/01/22 03:06:25;;;;;;;866.87;444.40;;;0.60;99.90;;;;;;5033767;28;20074;-83
2023/01/22 03:08:53;;;;;;;849.07;441.13;;;0.60;99.90;;;;;;5033710;28;20298;-83
2023/01/22 03:11:19;;;;;;;842.10;348.17;;;1.30;99.90;;;;;;5032978;28;20300;-84
2023/01/22 03:21:59;;;;;;;828.07;348.87;;;0.70;99.90;;;;;;5033400;28;20118;-83
2023/01/22 03:24:24;;;;;;;830.20;345.43;;;1.40;99.90;;;;;;5033590;28;20672;-84
2023/01/22 03:26:50;;;;;;;833.87;442.30;;;1.20;99.90;;;;;;5033065;28;20394;-83
2023/01/22 03:29:16;;;;;;;828.17;441.63;;;1.60;99.90;;;;;;5015474;28;20050;-84
2023/01/22 03:31:46;;;;;;;827.93;346.03;;;0.70;99.90;;;;;;5033566;28;20052;-84
2023/01/22 03:34:16;;;;;;;840.00;346.30;;;0.70;99.90;;;;;;5033538;28;20080;-84
2023/01/22 03:36:42;;;;;;;852.03;347.37;;;0.80;99.90;;;;;;5033590;28;20640;-84
2023/01/22 03:39:08;;;;;;;849.60;444.00;;;0.80;99.90;;;;;;5032675;28;20292;-82
2023/01/22 03:41:33;;;;;;;840.40;346.87;;;0.70;99.90;;;;;;5033343;28;20296;-84
2023/01/22 03:44:00;;;;;;;862.03;352.87;;;0.80;99.90;;;;;;5032872;28;20037;-84
2023/01/22 03:46:26;;;;;;;841.47;348.10;;;0.70;99.90;;;;;;5033157;28;20489;-84
2023/01/22 03:48:52;;;;;;;856.90;445.20;;;0.80;99.90;;;;;;5032853;28;20296;-83
2023/01/22 03:51:19;;;;;;;831.57;345.00;;;1.40;99.90;;;;;;5033064;28;20363;-84
2023/01/22 03:53:45;;;;;;;828.37;440.43;;;1.70;99.90;;;;;;5033135;28;20300;-83
2023/01/22 03:56:13;;;;;;;831.80;443.73;;;0.80;99.90;;;;;;5032659;28;20292;-83
2023/01/22 03:58:39;;;;;;;836.43;347.93;;;1.70;99.90;;;;;;5015138;28;20668;-83
2023/01/22 04:01:08;;;;;;;830.03;345.17;;;1.70;99.90;;;;;;5032239;28;20366;-84
2023/01/22 04:03:34;;;;;;;825.27;344.93;;;1.70;99.90;;;;;;5033016;28;20292;-84
2023/01/22 04:06:00;;;;;;;832.53;442.53;;;1.80;99.90;;;;;;5032844;28;20315;-84
2023/01/22 04:08:28;;;;;;;848.33;345.73;;;1.90;99.90;;;;;;5032799;28;20656;-83
2023/01/22 04:10:55;;;;;;;846.20;446.77;;;0.70;99.90;;;;;;5014724;28;20292;-83
2023/01/22 04:13:22;;;;;;;842.90;347.20;;;1.90;99.90;;;;;;5032305;28;20296;-83
2023/01/22 04:15:47;;;;;;;844.80;443.37;;;0.80;99.90;;;;;;5033823;28;20249;-83
2023/01/22 04:18:13;;;;;;;842.87;444.17;;;0.80;99.90;;;;;;5034145;28;20311;-84
2023/01/22 04:20:39;;;;;;;838.73;347.67;;;1.00;99.90;;;;;;5032739;28;20099;-84
2023/01/22 04:23:06;;;;;;;835.17;445.00;;;0.80;99.90;;;;;;5034011;28;20124;-84
2023/01/22 04:25:32;;;;;;;829.97;344.80;;;1.90;99.90;;;;;;5014389;28;20295;-82
2023/01/22 04:27:58;;;;;;;855.70;445.73;;;0.90;99.90;;;;;;5014796;28;20792;-82
2023/01/22 04:30:23;;;;;;;862.23;351.27;;;0.90;99.90;;;;;;5031571;28;20315;-83
2023/01/22 04:32:49;;;;;;;888.73;350.67;;;0.90;99.90;;;;;;5032804;28;20037;-82
2023/01/22 04:35:15;;;;;;;897.90;351.37;;;2.30;99.90;;;;;;5032282;28;20112;-82
2023/01/22 04:37:40;;;;;;;848.83;346.27;;;1.80;99.90;;;;;;5032603;28;20045;-83
2023/01/22 04:40:07;;;;;;;857.00;444.07;;;2.10;99.90;;;;;;5031985;28;20041;-83
2023/01/22 04:42:33;;;;;;;894.57;351.57;;;0.90;99.90;;;;;;5032024;28;20081;-84
2023/01/22 04:44:58;;;;;;;942.73;356.87;;;0.90;99.90;;;;;;5032295;28;20330;-84
2023/01/22 04:47:24;;;;;;;977.87;359.17;;;0.90;99.90;;;;;;5031956;28;20033;-84
2023/01/22 04:49:50;;;;;;;1002.70;455.20;;;2.10;99.90;;;;;;5032036;28;20042;-83
2023/01/22 04:52:16;;;;;;;1007.97;450.10;;;0.90;99.90;;;;;;5014245;28;20406;-84
2023/01/22 04:54:42;;;;;;;994.03;356.90;;;1.00;99.90;;;;;;5024480;28;20437;-84
2023/01/22 04:57:09;;;;;;;998.33;356.40;;;1.90;99.90;;;;;;5014739;28;20304;-84
2023/01/22 04:59:35;;;;;;;999.67;452.83;;;1.40;99.90;;;;;;5031452;28;20046;-83
2023/01/22 05:02:00;;;;;;;972.67;355.57;;;1.00;99.90;;;;;;5031859;28;20384;-83
2023/01/22 05:04:27;;;;;;;1003.57;453.77;;;0.90;99.90;;;;;;5031845;28;20490;-83
2023/01/22 05:06:53;;;;;;;1001.07;450.83;;;2.00;99.90;;;;;;5014668;28;20417;-84
2023/01/22 05:09:19;;;;;;;1009.37;453.97;;;0.90;99.90;;;;;;5031751;28;20357;-84
2023/01/22 05:11:44;;;;;;;989.53;454.07;;;2.30;99.90;;;;;;5031178;28;20686;-85
2023/01/22 05:14:10;;;;;;;958.70;355.73;;;1.00;99.90;;;;;;5014354;28;20184;-84
2023/01/22 05:16:36;;;;;;;986.43;451.57;;;1.80;99.90;;;;;;5031782;28;20056;-84
2023/01/22 05:19:02;;;;;;;978.67;358.10;;;1.60;99.90;;;;;;5031767;28;20037;-84
2023/01/22 05:21:27;;;;;;;994.50;454.17;;;1.00;99.90;;;;;;5031739;28;20512;-84
2023/01/22 05:23:53;;;;;;;986.83;357.40;;;1.70;99.90;;;;;;5041021;28;20137;-84
2023/01/22 05:26:19;;;;;;;993.27;358.07;;;1.00;99.90;;;;;;5051571;28;20398;-83
2023/01/22 05:28:45;;;;;;;1003.03;450.97;;;1.30;99.90;;;;;;5050100;28;20124;-83
2023/01/22 05:31:11;;;;;;;984.37;357.90;;;1.10;99.90;;;;;;5032152;28;20363;-83
2023/01/22 05:33:38;;;;;;;1002.17;451.00;;;1.60;99.90;;;;;;5041073;28;20115;-84
2023/01/22 05:36:04;;;;;;;984.37;358.13;;;1.10;99.90;;;;;;5035570;28;20397;-83
2023/01/22 05:38:30;;;;;;;1013.93;457.27;;;1.10;99.90;;;;;;5037086;28;20664;-82
2023/01/22 05:40:56;;;;;;;1015.13;456.03;;;1.10;99.90;;;;;;5036920;28;20312;-83
2023/01/22 05:43:21;;;;;;;986.63;453.60;;;2.00;99.90;;;;;;5038343;28;20103;-83
2023/01/22 05:45:47;;;;;;;984.73;452.47;;;1.10;99.90;;;;;;5054824;28;20071;-82
2023/01/22 05:48:13;;;;;;;957.90;358.13;;;1.10;99.90;;;;;;5054859;28;20073;-83
2023/01/22 05:50:39;;;;;;;967.60;449.07;;;1.00;99.90;;;;;;5035691;28;20041;-83
2023/01/22 05:53:06;;;;;;;962.70;355.47;;;1.00;99.90;;;;;;5054670;28;20047;-84
2023/01/22 05:55:33;;;;;;;996.77;455.40;;;1.10;99.90;;;;;;5039805;28;20316;-83
2023/01/22 05:57:58;;;;;;;986.47;450.67;;;1.00;99.90;;;;;;5035528;28;20307;-82
2023/01/22 06:00:25;;;;;;;997.33;453.80;;;1.80;99.90;;;;;;5035706;28;20312;-83
2023/01/22 06:02:56;;;;;;;985.07;454.40;;;1.60;99.90;;;;;;5035415;28;20049;-82
2023/01/22 06:05:21;;;;;;;984.07;456.87;;;1.00;99.90;;;;;;5036482;28;20304;-83
2023/01/22 06:07:47;;;;;;;951.30;358.40;;;1.00;99.90;;;;;;5046599;28;20841;-83
2023/01/22 06:10:13;;;;;;;1010.23;450.77;;;2.20;99.90;;;;;;5052478;28;20045;-83
2023/01/22 06:12:38;;;;;;;988.87;353.50;;;2.20;99.90;;;;;;5054810;28;20069;-83
2023/01/22 06:15:04;;;;;;;1002.77;454.73;;;1.10;99.90;;;;;;5052490;28;20040;-82
2023/01/22 06:17:30;;;;;;;977.63;454.17;;;0.90;99.90;;;;;;5054614;28;20052;-83
2023/01/22 06:19:56;;;;;;;969.10;359.60;;;0.70;99.90;;;;;;5052707;28;20315;-82
2023/01/22 06:22:21;;;;;;;965.73;359.57;;;0.90;99.90;;;;;;5054333;28;20048;-83
2023/01/22 06:24:47;;;;;;;1008.00;454.97;;;0.90;99.90;;;;;;5050744;28;20053;-83
2023/01/22 06:27:13;;;;;;;962.83;354.13;;;0.90;99.90;;;;;;5054538;28;20051;-83
2023/01/22 06:29:38;;;;;;;954.87;355.30;;;1.90;99.90;;;;;;5054676;28;20459;-82
2023/01/22 06:32:04;;;;;;;979.87;456.43;;;0.90;99.90;;;;;;5054037;28;20041;-83
2023/01/22 06:34:30;;;;;;;948.80;452.23;;;0.90;99.90;;;;;;5054625;28;20393;-82
2023/01/22 06:36:55;;;;;;;958.20;452.13;;;0.90;99.90;;;;;;5054014;28;20124;-83
2023/01/22 06:39:21;;;;;;;969.87;455.93;;;0.80;99.90;;;;;;5052747;28;20041;-83
2023/01/22 06:41:47;;;;;;;1015.97;453.23;;;2.00;99.90;;;;;;5054493;28;20091;-83
2023/01/22 06:44:13;;;;;;;1028.87;457.47;;;0.80;99.90;;;;;;5052732;28;20044;-83
2023/01/22 06:46:38;;;;;;;1020.87;453.07;;;0.90;99.90;;;;;;5054229;28;20477;-83
2023/01/22 06:49:04;;;;;;;1029.83;453.07;;;0.80;99.90;;;;;;5052661;28;20049;-84
2023/01/22 06:51:30;;;;;;;1004.03;359.37;;;0.80;99.90;;;;;;5053133;28;20052;-84
2023/01/22 06:53:56;;;;;;;985.57;357.93;;;1.30;99.90;;;;;;5054017;28;20055;-83
2023/01/22 06:56:21;;;;;;;1015.10;454.87;;;0.80;99.90;;;;;;5054060;28;20040;-84
2023/01/22 06:58:47;;;;;;;984.67;360.53;;;2.20;99.90;;;;;;5052345;28;20481;-85
2023/01/22 07:01:12;;;;;;;981.73;358.57;;;0.80;99.90;;;;;;5053769;28;20210;-84
2023/01/22 07:03:38;;;;;;;994.13;454.93;;;0.80;99.90;;;;;;5052690;28;20044;-84
2023/01/22 07:06:04;;;;;;;971.60;357.10;;;0.70;99.90;;;;;;5036040;28;20055;-83
2023/01/22 07:08:32;;;;;;;1018.67;450.73;;;0.70;99.90;;;;;;5054050;28;20128;-84
2023/01/22 07:10:58;;;;;;;1006.87;450.47;;;0.70;99.90;;;;;;5053264;28;20311;-83
2023/01/22 07:13:24;;;;;;;1002.07;361.27;;;1.40;99.90;;;;;;5052658;28;20292;-83
2023/01/22 07:15:49;;;;;;;1047.80;458.87;;;0.70;99.90;;;;;;5053192;28;20307;-82
2023/01/22 07:18:18;;;;;;;1052.33;459.00;;;0.70;99.90;;;;;;5053479;28;20114;-83
2023/01/22 07:20:44;;;;;;;1038.57;450.83;;;0.70;99.90;;;;;;5051652;28;20045;-83
2023/01/22 07:23:10;;;;;;;1057.03;457.60;;;0.70;99.90;;;;;;5053280;28;20655;-84
2023/01/22 07:25:35;;;;;;;1045.07;362.73;;;1.30;99.90;;;;;;5053503;28;20033;-83
2023/01/22 07:28:02;;;;;;;1051.97;455.43;;;0.70;99.90;;;;;;5052825;28;20435;-84
2023/01/22 07:30:28;;;;;;;1023.63;358.83;;;1.00;99.90;;;;;;5051081;28;20040;-83
2023/01/22 07:32:57;;;;;;;1031.73;358.27;;;1.20;99.90;;;;;;5038663;28;20308;-82
2023/01/22 07:35:23;;;;;;;1046.70;454.50;;;0.70;99.90;;;;;;5034032;28;20644;-83
2023/01/22 07:37:57;;;;;;;1065.40;453.80;;;1.80;99.90;;;;;;5033887;28;20353;-84
2023/01/22 07:40:23;;;;;;;1002.87;357.10;;;0.60;99.90;;;;;;5018101;28;20056;-82
2023/01/22 07:42:53;;;;;;;995.53;455.60;;;0.60;99.90;;;;;;5033783;28;20795;-81
2023/01/22 07:45:20;;;;;;;988.73;358.80;;;0.60;99.90;;;;;;5033508;28;20295;-82
2023/01/22 07:47:54;;;;;;;1017.13;362.43;;;0.90;99.90;;;;;;5033576;28;20296;-81
2023/01/22 07:50:21;;;;;;;1010.33;361.97;;;0.60;99.90;;;;;;5035955;28;20287;-84
2023/01/22 07:52:47;;;;;;;1020.73;451.93;;;0.70;99.90;;;;;;5033514;28;20299;-82
2023/01/22 07:55:13;;;;;;;1017.13;448.70;;;0.60;99.90;;;;;;5052842;28;20361;-81
2023/01/22 07:57:38;;;;;;;984.50;355.50;;;0.60;99.90;;;;;;5051757;28;20037;-82
2023/01/22 08:00:05;;;;;;;988.67;356.07;;;0.70;99.90;;;;;;5052505;28;20367;-82
2023/01/22 08:02:30;;;;;;;1015.23;455.17;;;0.80;99.90;;;;;;5050755;28;20041;-81
2023/01/22 08:04:56;;;;;;;1004.67;361.37;;;0.60;99.90;;;;;;5050278;28;20678;-81
2023/01/22 08:07:22;;;;;;;1019.50;453.23;;;0.60;99.90;;;;;;5037916;28;20053;-81
2023/01/22 08:09:48;;;;;;;1018.00;451.43;;;0.60;99.90;;;;;;5033340;28;20077;-81
2023/01/22 08:12:14;;;;;;;992.17;448.57;;;0.60;99.90;;;;;;5015365;28;20284;-81
2023/01/22 08:14:39;;;;;;;1012.33;445.00;;;0.60;99.90;;;;;;5033151;28;20637;-82
2023/01/22 08:17:05;;;;;;;980.10;357.53;;;0.50;99.90;;;;;;5033008;28;20473;-81
2023/01/22 08:19:31;;;;;;;979.23;356.73;;;0.50;99.90;;;;;;5035100;28;20099;-82
2023/01/22 08:21:56;;;;;;;995.40;450.47;;;0.50;99.90;;;;;;5033118;28;20121;-82
2023/01/22 08:24:22;;;;;;;976.97;449.13;;;0.50;99.90;;;;;;5032708;28;20065;-82
2023/01/22 08:26:57;;;;;;;968.60;449.48;;;0.50;99.90;;;;;;5032696;28;20041;-81
2023/01/22 08:29:22;;;;;;;1015.77;450.73;;;0.50;99.90;;;;;;5014950;28;20037;-81
2023/01/22 08:31:49;;;;;;;966.37;450.00;;;0.50;99.90;;;;;;5032448;28;20076;-81
2023/01/22 08:34:15;;;;;;;920.57;348.20;;;0.50;99.90;;;;;;5032735;28;20120;-82
2023/01/22 08:36:41;;;;;;;913.97;349.90;;;0.50;99.90;;;;;;5032556;28;20296;-81
2023/01/22 08:39:09;;;;;;;929.20;448.80;;;0.50;99.90;;;;;;5032369;28;20306;-82
2023/01/22 08:41:35;;;;;;;930.97;448.17;;;0.50;99.90;;;;;;5031662;28;20045;-81
2023/01/22 08:44:01;;;;;;;919.20;349.97;;;0.50;99.90;;;;;;5032495;28;20341;-83
2023/01/22 08:46:26;;;;;;;938.97;446.60;;;0.50;99.90;;;;;;5032168;28;20049;-81
2023/01/22 08:48:52;;;;;;;951.70;450.43;;;0.50;99.90;;;;;;5032135;28;20056;-81
2023/01/22 08:51:18;;;;;;;943.77;447.07;;;0.50;99.90;;;;;;5032076;28;20512;-82
2023/01/22 08:53:43;;;;;;;921.03;349.07;;;0.50;99.90;;;;;;5031961;28;20076;-82
2023/01/22 08:56:09;;;;;;;976.43;450.43;;;0.50;99.90;;;;;;5032445;28;20069;-81
2023/01/22 08:58:35;;;;;;;917.47;350.93;;;0.50;99.90;;;;;;5031873;28;20045;-81
2023/01/22 09:01:01;;;;;;;934.13;447.53;;;0.50;99.90;;;;;;5032027;28;20304;-84
2023/01/22 09:03:28;;;;;;;911.43;352.03;;;0.50;99.90;;;;;;5031926;28;20123;-81
2023/01/22 09:05:53;;;;;;;931.37;450.00;;;0.50;99.90;;;;;;5032080;28;20079;-82
2023/01/22 09:08:20;;;;;;;910.57;351.00;;;1.50;99.90;;;;;;5032116;28;20807;-83
2023/01/22 09:10:46;;;;;;;916.30;444.37;;;0.50;99.90;;;;;;5034882;28;20049;-81
2023/01/22 09:13:12;;;;;;;913.23;443.83;;;0.50;99.90;;;;;;5036082;28;20288;-82
2023/01/22 09:15:39;;;;;;;917.80;447.27;;;0.60;99.90;;;;;;5036165;28;20529;-81
2023/01/22 09:18:04;;;;;;;910.43;352.60;;;0.60;99.90;;;;;;5017985;28;20037;-84
2023/01/22 09:20:30;;;;;;;915.97;352.60;;;1.20;99.90;;;;;;5035906;28;20262;-82
2023/01/22 09:22:56;;;;;;;909.30;350.90;;;0.70;99.90;;;;;;5037369;28;20026;-82
2023/01/22 09:25:21;;;;;;;916.53;353.80;;;0.70;99.90;;;;;;5035864;28;20046;-82
2023/01/22 09:27:47;;;;;;;910.30;352.17;;;0.70;99.90;;;;;;5035513;28;20045;-83
2023/01/22 09:30:13;;;;;;;914.13;354.80;;;0.70;99.90;;;;;;5035616;28;20056;-82
2023/01/22 09:32:39;;;;;;;915.67;445.73;;;0.70;99.90;;;;;;5018412;28;20048;-82
2023/01/22 09:35:07;;;;;;;920.03;448.90;;;0.80;99.90;;;;;;5035494;28;20041;-82
2023/01/22 09:37:33;;;;;;;887.77;346.03;;;0.80;99.90;;;;;;5035092;28;20329;-82
2023/01/22 09:39:58;;;;;;;911.53;354.27;;;0.80;99.90;;;;;;5035253;28;20387;-82
2023/01/22 09:42:39;;;;;;;938.53;448.17;;;0.80;99.90;;;;;;5035357;28;20350;-82
2023/01/22 09:45:16;;;;;;;947.33;450.47;;;0.80;99.90;;;;;;5035068;28;20057;-81
2023/01/22 09:48:05;;;;;;;953.77;451.17;;;1.40;99.90;;;;;;5035517;28;20370;-81
2023/01/22 09:50:33;;;;;;;930.83;354.00;;;1.10;99.90;;;;;;5044737;28;20300;-81
2023/01/22 09:53:03;;;;;;;919.50;352.50;;;0.90;99.90;;;;;;5017586;28;20602;-80
2023/01/22 09:55:31;;;;;;;930.17;355.03;;;0.90;99.90;;;;;;5034814;28;20323;-80
2023/01/22 09:58:04;;;;;;;952.20;453.00;;;0.90;99.90;;;;;;5034715;28;20391;-80
2023/01/22 10:00:39;;;;;;;949.90;447.60;;;1.00;99.90;;;;;;5034756;28;20316;-80
2023/01/22 10:03:12;;;;;;;962.00;450.63;;;1.10;99.90;;;;;;5017358;28;20655;-79
2023/01/22 10:05:45;;;;;;;937.40;353.77;;;1.00;99.90;;;;;;5035380;28;20652;-79
2023/01/22 10:08:21;;;;;;;937.07;352.90;;;1.30;99.90;;;;;;5035287;28;20291;-79
2023/01/22 10:10:49;;;;;;;958.40;450.57;;;1.20;99.90;;;;;;5035231;28;20628;-81
2023/01/22 10:13:18;;;;;;;946.60;353.83;;;2.10;99.90;;;;;;5035344;28;20687;-80
2023/01/22 10:15:44;;;;;;;990.87;457.10;;;1.30;99.90;;;;;;5035078;28;20292;-82
2023/01/22 10:18:30;;;;;;;969.00;359.03;;;1.30;99.90;;;;;;5034458;28;20342;-81
2023/01/22 10:20:59;;;;;;;966.20;451.33;;;1.40;99.90;;;;;;5034316;28;20780;-82
2023/01/22 10:23:25;;;;;;;944.20;353.83;;;1.40;99.90;;;;;;5016959;28;20057;-81
2023/01/22 10:26:16;;;;;;;971.07;457.53;;;1.40;99.90;;;;;;5035028;28;20346;-81
2023/01/22 10:28:49;;;;;;;984.63;452.37;;;1.50;99.90;;;;;;5016963;28;20362;-82
2023/01/22 10:31:32;;;;;;;958.80;358.90;;;1.60;99.90;;;;;;5034086;28;20342;-81
2023/01/22 10:34:12;;;;;;;961.73;454.50;;;1.60;99.90;;;;;;5034775;28;20250;-81
2023/01/22 10:36:38;;;;;;;944.57;347.50;;;1.60;99.90;;;;;;5034998;28;20295;-81
2023/01/22 10:39:13;;;;;;;960.00;358.30;;;1.70;99.90;;;;;;5034536;28;20303;-83
2023/01/22 10:41:42;;;;;;;966.27;356.93;;;1.70;99.90;;;;;;5016698;28;20041;-81
2023/01/22 10:44:25;;;;;;;976.17;455.10;;;1.70;99.90;;;;;;5034359;28;20663;-81
2023/01/22 10:46:52;;;;;;;951.73;357.10;;;1.80;99.90;;;;;;5029070;28;20300;-82
2023/01/22 10:49:26;;;;;;;957.10;356.97;;;1.80;99.90;;;;;;5016532;28;20290;-81
2023/01/22 10:51:58;;;;;;;979.10;458.23;;;1.90;99.90;;;;;;5033835;28;20292;-81
2023/01/22 10:54:40;;;;;;;933.73;360.40;;;1.90;99.90;;;;;;5016275;28;20338;-81
2023/01/22 10:57:32;;;;;;;951.70;362.77;;;2.00;99.90;;;;;;5034162;28;20292;-82
2023/01/22 11:00:22;;;;;;;900.30;356.17;;;2.00;99.90;;;;;;5016554;28;20311;-79
2023/01/22 11:02:49;;;;;;;907.77;351.13;;;2.10;99.90;;;;;;5033612;28;20324;-80
2023/01/22 11:05:22;;;;;;;931.23;352.30;;;2.10;99.90;;;;;;5033943;28;20289;-83
2023/01/22 11:07:56;;;;;;;924.73;455.77;;;2.00;99.90;;;;;;5034164;28;20299;-81
2023/01/22 11:10:43;;;;;;;926.83;357.50;;;2.20;99.90;;;;;;5034036;28;20322;-80
2023/01/22 11:13:40;;;;;;;927.43;358.37;;;2.00;99.90;;;;;;5033521;28;20354;-82
2023/01/22 11:16:15;;;;;;;;;;;2.10;99.90;;;;;;5030376;28;20289;-82
2023/01/22 11:19:05;;;;;;;926.80;354.20;;;2.10;99.90;;;;;;5033822;28;20427;-81
2023/01/22 11:21:33;;;;;;;963.93;354.97;;;2.20;99.90;;;;;;5033736;28;20359;-80
2023/01/22 11:24:10;;;;;;;971.10;354.90;;;2.20;99.90;;;;;;5033720;28;20296;-80
2023/01/22 11:27:12;;;;;;;995.63;459.97;;;2.20;99.90;;;;;;5033334;28;20308;-80
2023/01/22 11:30:02;;;;;;;982.03;457.47;;;2.30;99.90;;;;;;5033632;28;20629;-81
2023/01/22 11:32:46;;;;;;;967.30;356.10;;;2.30;99.90;;;;;;5032521;28;20296;-81
2023/01/22 11:35:18;;;;;;;975.87;362.30;;;2.40;99.90;;;;;;5010597;28;20781;-81
2023/01/22 11:38:02;;;;;;;992.97;357.30;;;2.40;99.90;;;;;;5033515;28;20328;-80
2023/01/22 11:40:34;;;;;;;1015.73;460.37;;;2.50;99.90;;;;;;5033384;28;20807;-80
2023/01/22 11:43:17;;;;;;;1002.67;356.57;;;2.90;99.90;;;;;;5033436;28;20379;-81
2023/01/22 11:46:08;;;;;;;1077.13;467.87;;;2.60;99.90;;;;;;5033053;28;20300;-81
2023/01/22 11:48:59;;;;;;;1102.07;370.97;;;2.60;99.90;;;;;;5033040;28;20284;-81
2023/01/22 11:51:30;;;;;;;1140.80;474.33;;;2.60;99.90;;;;;;5033328;28;20292;-82
2023/01/22 11:54:37;;;;;;;1124.90;383.27;;;3.40;99.90;;;;;;5033203;28;20342;-81
2023/01/22 11:57:30;;;;;;;1186.68;472.20;;;2.70;99.90;;;;;;5033351;28;20299;-82
2023/01/22 12:00:18;;;;;;;1134.20;390.33;;;2.70;99.90;;;;;;5032639;28;20183;-82
2023/01/22 12:03:10;;;;;;;1170.73;489.47;;;2.70;99.90;;;;;;5032719;28;20327;-81
2023/01/22 12:05:47;;;;;;;1172.27;433.47;;;2.70;99.90;;;;;;5015117;28;20077;-81
2023/01/22 12:08:38;;;;;;;1127.33;493.97;;;2.80;99.90;;;;;;5041690;28;20045;-80
2023/01/22 12:11:13;;;;;;;1094.87;489.07;;;2.80;99.90;;;;;;5033035;28;20131;-81
2023/01/22 12:14:14;;;;;;;1091.07;409.38;;;2.90;99.90;;;;;;5032936;28;20046;-81
2023/01/22 12:16:57;;;;;;;1115.57;411.83;;;2.90;99.90;;;;;;5011792;28;20045;-80
2023/01/22 12:19:26;;;;;;;1073.33;484.23;;;2.90;99.90;;;;;;5009449;28;20057;-81
2023/01/22 12:22:14;;;;;;;1031.03;395.07;;;2.90;99.90;;;;;;5014997;28;20072;-81
2023/01/22 12:24:56;;;;;;;1097.30;533.73;;;2.90;99.90;;;;;;5040116;28;20802;-81
2023/01/22 12:27:35;;;;;;;1101.43;389.03;;;3.00;99.90;;;;;;5052711;28;20353;-80
2023/01/22 12:30:09;;;;;;;1061.57;380.33;;;2.90;99.90;;;;;;5052225;28;20441;-81
2023/01/22 12:32:36;;;;;;;1081.23;471.80;;;3.00;99.90;;;;;;5052573;28;20651;-81
2023/01/22 12:35:31;;;;;;;1076.53;383.30;;;3.00;99.90;;;;;;5052383;28;20298;-80
2023/01/22 12:38:05;;;;;;;1090.37;478.80;;;3.00;99.90;;;;;;5000027;28;20313;-81
2023/01/22 12:40:49;;;;;;;1026.37;374.00;;;3.00;99.90;;;;;;5010246;28;20320;-81
2023/01/22 12:43:21;;;;;;;969.10;369.10;;;3.00;99.90;;;;;;4998968;28;20322;-81